Time;durP1;ratioP1;P1;durP2;ratioP2;P2;SDS_P1;SDS_P2;PMS_P1;PMS_P2;Temp;Humidity;BMP_temperature;BMP_pressure;BME280_temperature;BME280_humidity;BME280_pressure;Samples;Min_cycle;Max_cycle;Signal;HPM_P1;HPM_P2
2021/10/15 00:00:38;;;;;;;40.55;22.40;;;;;;;3.63;100.00;101003.34;5133691;27;20458;-73
2021/10/15 00:03:06;;;;;;;36.55;21.00;;;;;;;3.70;100.00;100999.72;5133050;27;20043;-74
2021/10/15 00:05:35;;;;;;;37.08;20.42;;;;;;;3.79;100.00;101004.81;5133599;27;20043;-73
2021/10/15 00:08:03;;;;;;;40.95;22.40;;;;;;;3.86;100.00;100998.50;5132055;27;20046;-73
2021/10/15 00:10:32;;;;;;;36.97;21.65;;;;;;;3.74;100.00;101002.25;5133354;27;20123;-73
2021/10/15 00:13:00;;;;;;;38.75;22.25;;;;;;;3.65;100.00;101004.19;5133513;27;20472;-73
2021/10/15 00:15:28;;;;;;;39.78;23.00;;;;;;;3.49;100.00;101001.00;5133059;27;20103;-73
2021/10/15 00:17:58;;;;;;;35.05;21.80;;;;;;;3.43;100.00;100996.69;5133253;27;20047;-73
2021/10/15 00:20:26;;;;;;;38.15;21.75;;;;;;;3.39;100.00;100994.16;5132962;27;20057;-74
2021/10/15 00:22:54;;;;;;;39.17;22.38;;;;;;;3.39;100.00;100991.53;5133138;27;20617;-73
2021/10/15 00:25:23;;;;;;;39.03;21.98;;;;;;;3.29;100.00;100995.25;5132826;27;20047;-74
2021/10/15 00:27:51;;;;;;;36.13;20.92;;;;;;;3.27;100.00;100995.25;5133390;27;20074;-72
2021/10/15 00:30:19;;;;;;;37.90;21.00;;;;;;;3.16;100.00;100991.94;5132952;27;20072;-72
2021/10/15 00:32:48;;;;;;;35.65;21.25;;;;;;;3.13;100.00;100999.91;5133401;27;20055;-72
2021/10/15 00:35:17;;;;;;;36.38;22.02;;;;;;;3.12;100.00;101006.09;5132588;27;20538;-72
2021/10/15 00:37:48;;;;;;;34.50;20.95;;;;;;;3.11;100.00;101001.72;5133229;27;20399;-70
2021/10/15 00:40:17;;;;;;;37.85;21.95;;;;;;;3.11;100.00;100999.06;5132700;27;20475;-70
2021/10/15 00:42:47;;;;;;;41.40;20.75;;;;;;;3.14;100.00;100994.59;5133275;27;20089;-70
2021/10/15 00:45:15;;;;;;;38.58;20.92;;;;;;;3.10;100.00;100999.97;5132596;27;20068;-70
2021/10/15 00:47:43;;;;;;;37.55;21.73;;;;;;;3.10;100.00;100987.66;5132788;27;20046;-70
2021/10/15 00:50:11;;;;;;;36.72;21.73;;;;;;;3.32;100.00;100984.63;5132592;27;20433;-71
2021/10/15 00:52:42;;;;;;;39.25;20.55;;;;;;;3.52;100.00;100984.25;5133006;27;20078;-69
2021/10/15 00:55:10;;;;;;;36.05;20.50;;;;;;;3.38;100.00;100982.75;5132760;27;20035;-70
2021/10/15 00:57:39;;;;;;;35.20;20.95;;;;;;;3.31;100.00;100978.47;5132772;27;20043;-70
2021/10/15 01:00:08;;;;;;;35.80;20.55;;;;;;;3.28;100.00;100975.00;5132619;27;20054;-70
2021/10/15 01:02:37;;;;;;;31.73;19.17;;;;;;;3.29;100.00;100969.75;5132480;27;20087;-70
2021/10/15 01:05:07;;;;;;;37.30;21.23;;;;;;;3.10;100.00;100974.47;5132596;27;20035;-70
2021/10/15 01:07:35;;;;;;;36.85;22.05;;;;;;;2.97;100.00;100975.56;5132770;28;20506;-70
2021/10/15 01:10:06;;;;;;;35.65;21.60;;;;;;;3.01;100.00;100965.88;5132429;28;20047;-70
2021/10/15 01:12:36;;;;;;;37.15;21.02;;;;;;;2.82;100.00;100960.91;5132326;28;20058;-71
2021/10/15 01:15:05;;;;;;;35.95;20.80;;;;;;;2.77;100.00;100962.75;5132469;27;20075;-70
2021/10/15 01:17:33;;;;;;;37.45;20.75;;;;;;;2.76;100.00;100958.38;5131884;28;20533;-69
2021/10/15 01:20:04;;;;;;;36.13;20.63;;;;;;;2.79;100.00;100962.72;5132575;27;20035;-69
2021/10/15 01:22:33;;;;;;;35.60;20.95;;;;;;;2.74;100.00;100968.06;5132178;28;20130;-69
2021/10/15 01:25:01;;;;;;;36.72;21.05;;;;;;;2.72;100.00;100950.56;5132114;27;20464;-70
2021/10/15 01:27:29;;;;;;;36.95;21.73;;;;;;;2.71;100.00;100952.31;5132280;28;20043;-69
2021/10/15 01:30:00;;;;;;;40.28;21.67;;;;;;;2.71;100.00;100952.31;5132586;27;20441;-69
2021/10/15 01:32:28;;;;;;;36.60;21.33;;;;;;;2.73;100.00;100949.66;5131946;27;20138;-69
2021/10/15 01:34:56;;;;;;;38.47;21.73;;;;;;;2.65;100.00;100947.16;5132227;27;20451;-67
2021/10/15 01:37:25;;;;;;;35.55;21.85;;;;;;;2.64;100.00;100947.19;5131891;28;20039;-67
2021/10/15 01:39:54;;;;;;;36.25;21.35;;;;;;;2.71;100.00;100947.06;5132183;27;20118;-67
2021/10/15 01:45:09;;;;;;;38.22;21.85;;;;;;;2.61;100.00;100941.97;5132076;27;20053;-68
2021/10/15 01:47:37;;;;;;;39.15;21.60;;;;;;;2.67;100.00;100939.22;5132015;27;20047;-68
2021/10/15 01:50:06;;;;;;;38.22;20.90;;;;;;;2.63;100.00;100941.06;5132249;27;20039;-67
2021/10/15 01:52:38;;;;;;;36.67;21.98;;;;;;;2.58;100.00;100937.59;5131586;28;20090;-68
2021/10/15 01:55:09;;;;;;;37.00;20.80;;;;;;;2.48;100.00;100938.66;5130719;27;20142;-68
2021/10/15 01:57:38;;;;;;;36.90;21.02;;;;;;;2.43;100.00;100932.59;5131806;27;20045;-68
2021/10/15 02:00:08;;;;;;;38.97;22.23;;;;;;;2.38;100.00;100937.06;5131924;27;20042;-68
2021/10/15 02:02:41;;;;;;;33.17;19.85;;;;;;;2.38;100.00;100932.66;5132120;27;20039;-68
2021/10/15 02:05:13;;;;;;;38.05;21.13;;;;;;;2.45;100.00;100928.19;5132014;27;20486;-68
2021/10/15 02:07:43;;;;;;;37.72;21.67;;;;;;;2.48;100.00;100936.03;5132073;27;20043;-68
2021/10/15 02:10:13;;;;;;;35.67;20.77;;;;;;;2.45;100.00;100933.44;5131958;28;20390;-68
2021/10/15 02:12:42;;;;;;;43.53;22.60;;;;;;;2.40;100.00;100930.00;5131860;27;20104;-69
2021/10/15 02:15:12;;;;;;;40.25;22.23;;;;;;;2.60;100.00;100933.19;5135067;27;20088;-70
2021/10/15 02:17:41;;;;;;;37.88;21.77;;;;;;;2.65;100.00;100927.84;5135585;27;20125;-70
2021/10/15 02:20:14;;;;;;;36.08;21.77;;;;;;;2.53;100.00;100923.66;5135731;27;20097;-70
2021/10/15 02:22:45;;;;;;;41.55;23.00;;;;;;;2.48;100.00;100920.22;5135513;27;20047;-71
2021/10/15 02:25:14;;;;;;;37.20;22.77;;;;;;;2.45;100.00;100922.91;5135269;27;20088;-70
2021/10/15 02:27:43;;;;;;;45.08;22.83;;;;;;;2.38;100.00;100918.63;5135607;27;20083;-69
2021/10/15 02:30:13;;;;;;;41.50;22.40;;;;;;;2.40;100.00;100916.84;5135518;27;20062;-69
2021/10/15 02:32:43;;;;;;;39.40;22.67;;;;;;;2.40;100.00;100914.19;5135344;27;20139;-69
2021/10/15 02:35:12;;;;;;;40.28;22.20;;;;;;;2.68;100.00;100915.47;5135295;27;20042;-69
2021/10/15 02:37:40;;;;;;;32.17;19.75;;;;;;;2.79;100.00;100916.16;5135108;27;20130;-69
2021/10/15 02:40:12;;;;;;;32.83;18.98;;;;;;;2.84;100.00;100911.69;5135072;27;20484;-69
2021/10/15 02:42:41;;;;;;;35.08;19.50;;;;;;;2.79;100.00;100905.63;5134878;27;20187;-72
2021/10/15 02:45:11;;;;;;;32.90;19.73;;;;;;;2.76;100.00;100912.72;5134922;27;20039;-72
2021/10/15 02:47:39;;;;;;;35.90;20.58;;;;;;;2.55;100.00;100916.59;5134810;27;20376;-73
2021/10/15 02:50:08;;;;;;;39.20;21.00;;;;;;;2.34;100.00;100920.44;5134992;27;20046;-73
2021/10/15 02:52:37;;;;;;;38.28;22.02;;;;;;;2.24;100.00;100925.00;5134649;27;20065;-73
2021/10/15 02:55:06;;;;;;;40.85;22.17;;;;;;;2.21;100.00;100922.38;5134906;27;20054;-71
2021/10/15 02:57:36;;;;;;;40.65;22.65;;;;;;;2.21;100.00;100929.41;5134839;27;20066;-71
2021/10/15 03:00:08;;;;;;;38.00;22.05;;;;;;;2.15;100.00;100934.78;5134604;27;20484;-71
2021/10/15 03:02:37;;;;;;;40.47;21.83;;;;;;;2.15;100.00;100934.78;5133229;27;20124;-71
2021/10/15 03:05:06;;;;;;;38.83;21.10;;;;;;;2.16;100.00;100934.75;5134447;27;20043;-71
2021/10/15 03:07:35;;;;;;;36.53;21.65;;;;;;;2.08;100.00;100939.25;5134396;27;20046;-71
2021/10/15 03:10:05;;;;;;;37.90;21.25;;;;;;;2.15;100.00;100946.19;5134561;27;20100;-72
2021/10/15 03:12:33;;;;;;;38.13;22.08;;;;;;;2.47;100.00;100936.91;5134417;27;20042;-72
2021/10/15 03:15:03;;;;;;;39.47;21.45;;;;;;;2.41;100.00;100929.09;5134616;27;20039;-72
2021/10/15 03:17:32;;;;;;;35.97;20.95;;;;;;;2.34;100.00;100925.72;5134449;27;20391;-72
2021/10/15 03:20:00;;;;;;;35.22;19.45;;;;;;;2.48;100.00;100921.09;5134686;27;20050;-72
2021/10/15 03:22:29;;;;;;;35.97;19.42;;;;;;;2.60;100.00;100920.00;5133921;27;20475;-70
2021/10/15 03:24:57;;;;;;;32.90;19.73;;;;;;;2.62;100.00;100915.59;5133772;27;20492;-72
2021/10/15 03:27:25;;;;;;;32.83;19.15;;;;;;;2.47;100.00;100913.22;5134088;27;20047;-72
2021/10/15 03:29:54;;;;;;;36.03;18.67;;;;;;;2.58;100.00;100912.13;5134315;27;20492;-71
2021/10/15 03:32:25;;;;;;;34.15;19.15;;;;;;;2.71;100.00;100904.91;5134161;27;20100;-72
2021/10/15 03:34:53;;;;;;;33.42;18.17;;;;;;;2.63;100.00;100900.66;5134102;27;20456;-72
2021/10/15 03:37:23;;;;;;;32.83;18.48;;;;;;;2.32;100.00;100902.91;5133809;27;20038;-72
2021/10/15 03:39:51;;;;;;;35.83;19.50;;;;;;;2.05;100.00;100912.13;5134578;27;20046;-71
2021/10/15 03:42:20;;;;;;;35.33;18.95;;;;;;;1.89;100.00;100911.47;5134073;27;20046;-77
2021/10/15 03:44:49;;;;;;;35.95;19.58;;;;;;;1.80;100.00;100920.38;5133986;27;20046;-71
2021/10/15 03:47:17;;;;;;;35.55;19.75;;;;;;;1.86;100.00;100922.06;5133920;27;20126;-72
2021/10/15 03:49:46;;;;;;;33.20;19.08;;;;;;;1.96;100.00;100923.66;5133747;27;20088;-72
2021/10/15 03:52:15;;;;;;;34.88;19.55;;;;;;;1.97;100.00;100920.13;5134083;27;20084;-72
2021/10/15 03:54:44;;;;;;;34.28;19.38;;;;;;;1.86;100.00;100915.03;5133589;27;20050;-71
2021/10/15 03:57:12;;;;;;;37.75;20.83;;;;;;;1.77;100.00;100914.28;5133779;27;20043;-72
2021/10/15 03:59:40;;;;;;;36.05;20.00;;;;;;;1.75;100.00;100910.81;5132508;27;20139;-72
2021/10/15 04:02:08;;;;;;;39.13;20.65;;;;;;;1.75;100.00;100909.06;5133869;27;20135;-72
2021/10/15 04:04:36;;;;;;;34.05;19.40;;;;;;;1.83;100.00;100911.56;5133528;27;20123;-71
2021/10/15 04:07:06;;;;;;;33.85;18.45;;;;;;;1.84;100.00;100913.31;5133580;27;20043;-71
2021/10/15 04:09:34;;;;;;;33.67;19.50;;;;;;;1.83;100.00;100915.03;5133101;27;20054;-71
2021/10/15 04:12:03;;;;;;;33.95;19.02;;;;;;;1.79;100.00;100910.72;5133234;27;20226;-71
2021/10/15 04:14:31;;;;;;;32.75;18.90;;;;;;;1.86;100.00;100908.91;5133187;27;20061;-71
2021/10/15 04:16:59;;;;;;;34.05;19.35;;;;;;;1.80;100.00;100906.34;5133420;27;20087;-70
2021/10/15 04:19:27;;;;;;;31.75;18.90;;;;;;;1.79;100.00;100904.59;5133218;27;20112;-71
2021/10/15 04:21:56;;;;;;;39.25;20.00;;;;;;;1.76;100.00;100905.53;5133284;27;20080;-71
2021/10/15 04:24:25;;;;;;;37.58;20.13;;;;;;;1.82;100.00;100901.91;5132824;27;20479;-71
2021/10/15 04:26:54;;;;;;;41.35;21.30;;;;;;;1.83;100.00;100901.91;5133275;27;20043;-70
2021/10/15 04:29:22;;;;;;;36.65;20.38;;;;;;;1.88;100.00;100905.34;5133134;27;20492;-76
2021/10/15 04:31:51;;;;;;;36.28;20.52;;;;;;;1.81;100.00;100898.44;5133289;27;20108;-70
2021/10/15 04:34:19;;;;;;;36.85;19.42;;;;;;;1.76;100.00;100891.50;5133097;27;20039;-70
2021/10/15 04:36:47;;;;;;;35.97;19.73;;;;;;;1.70;100.00;100893.31;5132829;27;20039;-72
2021/10/15 04:39:15;;;;;;;39.40;21.33;;;;;;;1.72;100.00;100898.56;5133267;27;20112;-72
2021/10/15 04:41:45;;;;;;;39.63;21.33;;;;;;;1.77;100.00;100894.09;5131415;27;20066;-72
2021/10/15 04:44:13;;;;;;;37.70;20.00;;;;;;;1.84;100.00;100892.28;5131333;27;20054;-71
2021/10/15 04:46:42;;;;;;;35.83;20.02;;;;;;;1.88;100.00;100899.22;5132443;27;20050;-71
2021/10/15 04:49:10;;;;;;;36.70;20.38;;;;;;;1.93;100.00;100905.25;5132676;27;20035;-72
2021/10/15 04:51:38;;;;;;;35.90;20.10;;;;;;;1.86;100.00;100904.50;5132537;27;20047;-68
2021/10/15 04:54:06;;;;;;;38.90;19.60;;;;;;;2.07;100.00;100894.56;5132718;27;20043;-69
2021/10/15 04:56:34;;;;;;;31.05;17.52;;;;;;;2.18;100.00;100898.75;5132539;27;20353;-67
2021/10/15 04:59:04;;;;;;;30.05;17.52;;;;;;;2.43;100.00;100893.97;5132724;27;20055;-67
2021/10/15 05:01:32;;;;;;;31.98;16.65;;;;;;;2.30;100.00;100893.28;5135163;27;20043;-67
2021/10/15 05:04:01;;;;;;;32.90;17.17;;;;;;;2.32;100.00;100890.66;5132875;27;20095;-68
2021/10/15 05:06:29;;;;;;;34.13;17.25;;;;;;;2.33;100.00;100892.41;5132580;27;20077;-68
2021/10/15 05:09:12;;;;;;;34.00;17.65;;;;;;;2.26;100.00;100886.34;5132912;27;20047;-67
2021/10/15 05:11:44;;;;;;;33.10;17.98;;;;;;;2.07;100.00;100878.75;5132495;27;20039;-69
2021/10/15 05:14:14;;;;;;;32.92;17.35;;;;;;;2.06;100.00;100883.16;5132986;27;20042;-70
2021/10/15 05:16:47;;;;;;;31.88;17.73;;;;;;;2.09;100.00;100872.56;5132541;28;20614;-70
2021/10/15 05:19:15;;;;;;;32.55;18.05;;;;;;;2.21;100.00;100879.41;5132870;27;20050;-70
2021/10/15 05:21:43;;;;;;;35.50;18.98;;;;;;;2.06;100.00;100883.16;5132383;27;20402;-70
2021/10/15 05:24:11;;;;;;;36.67;18.40;;;;;;;2.23;100.00;100881.13;5132720;27;20051;-67
2021/10/15 05:26:39;;;;;;;32.25;17.83;;;;;;;2.24;100.00;100885.50;5132467;27;20035;-68
2021/10/15 05:29:07;;;;;;;34.00;17.63;;;;;;;2.20;100.00;100882.94;5132735;27;20122;-67
2021/10/15 05:31:39;;;;;;;36.28;18.33;;;;;;;2.20;100.00;100881.16;5132451;28;20055;-68
2021/10/15 05:34:07;;;;;;;34.28;18.80;;;;;;;2.20;100.00;100888.19;5132472;27;20071;-68
2021/10/15 05:36:35;;;;;;;35.40;19.85;;;;;;;2.15;100.00;100875.13;5132400;27;20050;-69
2021/10/15 05:39:05;;;;;;;37.33;19.67;;;;;;;2.18;100.00;100876.84;5132749;27;20039;-71
2021/10/15 05:41:33;;;;;;;34.75;19.52;;;;;;;2.23;100.00;100870.59;5131399;28;20059;-71
2021/10/15 05:44:01;;;;;;;37.97;20.23;;;;;;;2.35;100.00;100873.94;5132819;27;20088;-69
2021/10/15 05:46:30;;;;;;;35.97;19.63;;;;;;;2.40;100.00;100866.81;5132430;28;20043;-72
2021/10/15 05:48:59;;;;;;;38.88;20.15;;;;;;;2.73;100.00;100860.97;5133930;27;20039;-72
2021/10/15 05:51:31;;;;;;;38.15;20.00;;;;;;;2.74;100.00;100865.34;5136213;27;20035;-69
2021/10/15 05:54:01;;;;;;;41.88;19.92;;;;;;;2.80;100.00;100864.38;5136266;27;20439;-70
2021/10/15 05:56:45;;;;;;;32.95;19.50;;;;;;;2.76;100.00;100866.16;5136019;27;20042;-75
2021/10/15 05:59:12;;;;;;;34.42;19.00;;;;;;;2.82;100.00;100863.44;5136063;27;20116;-69
2021/10/15 06:01:41;;;;;;;33.28;19.40;;;;;;;2.81;100.00;100869.59;5136225;27;20043;-68
2021/10/15 06:15:13;;;;;;;35.08;18.80;;;;;;;2.95;100.00;100871.09;5135980;27;20063;-65
2021/10/15 06:17:45;;;;;;;37.45;20.35;;;;;;;3.02;100.00;100867.44;5136082;27;20046;-66
2021/10/15 06:20:19;;;;;;;39.55;19.75;;;;;;;3.04;100.00;100868.28;5139505;27;20476;-65
2021/10/15 06:22:48;;;;;;;34.45;20.23;;;;;;;3.02;100.00;100864.81;5135941;27;20055;-67
2021/10/15 06:25:16;;;;;;;36.78;21.48;;;;;;;2.96;100.00;100864.91;5135885;27;20042;-66
2021/10/15 06:27:44;;;;;;;34.67;20.20;;;;;;;3.14;100.00;100862.78;5135730;27;20092;-67
2021/10/15 06:30:13;;;;;;;32.90;19.50;;;;;;;3.25;100.00;100865.22;5136063;27;20095;-68
2021/10/15 06:32:41;;;;;;;33.88;18.33;;;;;;;3.23;100.00;100869.66;5135856;27;20126;-68
2021/10/15 06:35:10;;;;;;;30.27;18.77;;;;;;;3.13;100.00;100865.47;5135980;27;20475;-67
2021/10/15 06:37:39;;;;;;;29.52;16.90;;;;;;;3.27;100.00;100870.44;5135530;27;20039;-68
2021/10/15 06:40:10;;;;;;;33.80;17.95;;;;;;;3.34;100.00;100872.94;5136033;27;20046;-68
2021/10/15 06:42:39;;;;;;;28.95;16.20;;;;;;;3.42;100.00;100883.31;5135636;27;20077;-67
2021/10/15 06:45:07;;;;;;;31.35;18.58;;;;;;;3.32;100.00;100882.66;5134199;27;20043;-67
2021/10/15 06:47:36;;;;;;;31.45;18.38;;;;;;;3.39;100.00;100868.44;5135140;27;20054;-67
2021/10/15 06:50:05;;;;;;;29.70;17.50;;;;;;;3.63;100.00;100876.72;5135544;27;20167;-70
2021/10/15 06:52:46;;;;;;;29.00;17.40;;;;;;;3.77;100.00;100874.66;5135216;27;20092;-72
2021/10/15 06:55:16;;;;;;;30.55;17.92;;;;;;;3.85;100.00;100872.69;5135331;27;20140;-68
2021/10/15 06:57:45;;;;;;;31.17;17.60;;;;;;;3.95;100.00;100871.59;5134840;27;20548;-68
2021/10/15 07:00:14;;;;;;;30.67;17.88;;;;;;;3.98;100.00;100863.63;5134871;27;20042;-68
2021/10/15 07:02:43;;;;;;;27.02;17.25;;;;;;;3.94;100.00;100861.94;5133454;27;20050;-68
2021/10/15 07:05:13;;;;;;;29.13;17.50;;;;;;;3.90;100.00;100864.69;5135175;27;20051;-69
2021/10/15 07:07:43;;;;;;;29.85;18.42;;;;;;;4.06;100.00;100871.34;5134893;27;20402;-69
2021/10/15 07:10:12;;;;;;;29.05;17.08;;;;;;;4.38;100.00;100862.66;5134723;27;20036;-67
2021/10/15 07:12:49;;;;;;;27.23;17.55;;;;;;;4.44;100.00;100859.88;5134414;27;20131;-66
2021/10/15 07:15:17;;;;;;;28.52;17.33;;;;;;;4.36;100.00;100861.81;5134595;27;20039;-66
2021/10/15 07:17:45;;;;;;;31.50;17.13;;;;;;;4.48;100.00;100855.34;5134455;27;20078;-67
2021/10/15 07:20:13;;;;;;;32.33;18.65;;;;;;;4.42;100.00;100859.00;5133688;27;20092;-67
2021/10/15 07:22:42;;;;;;;31.33;19.15;;;;;;;4.48;100.00;100852.72;5133012;27;20039;-67
2021/10/15 07:25:10;;;;;;;27.40;17.27;;;;;;;4.56;100.00;100856.91;5132261;27;20169;-66
2021/10/15 07:27:40;;;;;;;31.63;18.67;;;;;;;4.60;100.00;100853.25;5132957;27;20053;-67
2021/10/15 07:30:11;;;;;;;34.83;17.77;;;;;;;4.78;100.00;100853.69;5133574;27;20070;-67
2021/10/15 07:32:41;;;;;;;31.33;19.05;;;;;;;4.89;100.00;100864.81;5133699;27;20062;-67
2021/10/15 07:35:10;;;;;;;30.77;18.20;;;;;;;4.84;100.00;100866.75;5133865;27;20043;-67
2021/10/15 07:37:38;;;;;;;31.23;19.67;;;;;;;4.92;100.00;100859.44;5133571;27;20480;-68
2021/10/15 07:40:08;;;;;;;30.98;18.95;;;;;;;5.02;100.00;100855.66;5134012;27;20036;-67
2021/10/15 07:42:52;;;;;;;33.38;20.30;;;;;;;5.00;100.00;100859.25;5133526;27;20499;-67
2021/10/15 07:45:22;;;;;;;29.05;18.98;;;;;;;4.97;100.00;100862.84;5133656;27;20066;-66
2021/10/15 07:47:59;;;;;;;33.25;19.70;;;;;;;5.05;100.00;100860.88;5133376;27;20043;-67
2021/10/15 07:50:28;;;;;;;35.20;20.40;;;;;;;5.07;100.00;100864.31;5133889;27;20431;-67
2021/10/15 07:52:58;;;;;;;34.92;20.83;;;;;;;5.30;100.00;100855.72;5133618;27;20058;-65
2021/10/15 07:55:27;;;;;;;39.35;21.73;;;;;;;5.34;100.00;100859.16;5133517;27;20043;-66
2021/10/15 07:57:55;;;;;;;48.15;27.20;;;;;;;5.46;100.00;100850.88;5133299;27;20055;-66
2021/10/15 08:00:41;;;;;;;;;;;;;;;5.58;100.00;100855.78;5133988;27;20047;-72
2021/10/15 08:03:10;;;;;;;43.40;24.30;;;;;;;5.66;100.00;100863.50;5133431;27;19938;-66
2021/10/15 08:05:38;;;;;;;43.55;25.67;;;;;;;5.78;100.00;100868.41;5133299;27;20046;-66
2021/10/15 08:08:06;;;;;;;45.45;24.65;;;;;;;6.01;100.00;100859.81;5133236;27;20373;-66
2021/10/15 08:10:35;;;;;;;39.72;23.27;;;;;;;6.13;100.00;100864.69;5133413;27;20054;-66
2021/10/15 08:13:04;;;;;;;40.15;24.48;;;;;;;6.26;100.00;100858.09;5132697;27;20039;-66
2021/10/15 08:15:32;;;;;;;41.63;25.08;;;;;;;6.27;100.00;100861.59;5131374;27;20057;-68
2021/10/15 08:18:02;;;;;;;43.53;26.58;;;;;;;6.36;100.00;100849.84;5133004;27;20412;-66
2021/10/15 08:20:33;;;;;;;45.33;27.23;;;;;;;6.44;100.00;100850.44;5133023;27;20046;-67
2021/10/15 08:23:01;;;;;;;44.38;25.90;;;;;;;6.53;100.00;100847.47;5133020;27;20104;-66
2021/10/15 08:25:30;;;;;;;43.42;26.38;;;;;;;6.46;100.00;100845.94;5133074;27;20066;-67
2021/10/15 08:28:01;;;;;;;43.00;25.23;;;;;;;6.35;100.00;100850.75;5132827;27;20122;-67
2021/10/15 08:30:29;;;;;;;41.85;25.80;;;;;;;6.52;100.00;100851.06;5132921;27;20076;-67
2021/10/15 08:32:58;;;;;;;39.10;23.20;;;;;;;6.60;100.00;100855.19;5132656;27;20454;-67
2021/10/15 08:35:28;;;;;;;40.85;23.13;;;;;;;6.76;100.00;100855.53;5132872;27;20043;-66
2021/10/15 08:37:57;;;;;;;38.45;23.05;;;;;;;6.97;100.00;100858.34;5132737;27;20035;-67
2021/10/15 08:40:27;;;;;;;37.40;20.63;;;;;;;7.12;100.00;100855.13;5132521;27;20043;-66
2021/10/15 08:42:57;;;;;;;31.42;20.10;;;;;;;7.26;100.00;100854.63;5132138;27;20039;-66
2021/10/15 08:45:27;;;;;;;34.40;21.25;;;;;;;7.28;100.00;100848.34;5132284;27;20498;-66
2021/10/15 08:47:56;;;;;;;39.45;21.13;;;;;;;7.13;100.00;100847.09;5132053;27;20047;-67
2021/10/15 08:50:44;;;;;;;32.97;19.65;;;;;;;7.12;100.00;100832.09;5132341;27;20035;-67
2021/10/15 08:53:13;;;;;;;37.03;21.00;;;;;;;7.37;100.00;100841.81;5131775;27;20076;-67
2021/10/15 08:55:41;;;;;;;37.35;20.80;;;;;;;7.34;100.00;100842.81;5131503;27;20116;-67
2021/10/15 08:58:09;;;;;;;31.00;19.85;;;;;;;7.55;100.00;100842.91;5131631;27;20076;-68
2021/10/15 09:00:38;;;;;;;34.70;20.25;;;;;;;7.57;100.00;100839.28;5131741;27;20054;-68
2021/10/15 09:03:17;;;;;;;32.85;21.02;;;;;;;7.70;100.00;100844.97;5131611;27;20050;-67
2021/10/15 09:05:55;;;;;;;33.13;21.23;;;;;;;7.78;100.00;100826.94;5131753;27;20041;-67
2021/10/15 09:08:25;;;;;;;37.10;19.80;;;;;;;7.80;100.00;100827.75;5131001;27;20074;-67
2021/10/15 09:10:53;;;;;;;29.38;18.65;;;;;;;7.91;99.52;100828.22;5132316;27;20118;-67
2021/10/15 09:13:22;;;;;;;30.13;18.42;;;;;;;8.10;98.03;100817.69;5132553;27;20061;-67
2021/10/15 09:15:52;;;;;;;33.83;17.77;;;;;;;8.11;97.30;100810.59;5130614;27;20439;-67
2021/10/15 09:18:29;;;;;;;33.90;19.02;;;;;;;8.26;97.01;100807.28;5132265;27;20070;-67
2021/10/15 09:20:59;;;;;;;33.28;18.58;;;;;;;8.21;95.55;100809.28;5132309;28;20108;-67
2021/10/15 09:23:43;;;;;;;31.35;18.13;;;;;;;8.15;96.54;100806.88;5132794;27;20047;-66
2021/10/15 09:26:11;;;;;;;31.70;18.40;;;;;;;8.23;97.11;100802.09;5136254;27;20368;-68
2021/10/15 09:28:41;;;;;;;31.85;19.42;;;;;;;8.54;94.83;100797.25;5136010;27;20043;-68
2021/10/15 09:31:10;;;;;;;29.58;17.58;;;;;;;8.54;94.50;100793.72;5136439;27;20475;-68
2021/10/15 09:33:51;;;;;;;29.67;17.15;;;;;;;8.54;94.31;100791.94;5136595;27;20053;-67
2021/10/15 09:36:21;;;;;;;28.05;16.38;;;;;;;8.77;92.25;100790.06;5136216;27;20047;-67
2021/10/15 09:38:51;;;;;;;29.50;16.38;;;;;;;8.83;91.13;100774.69;5136076;27;20079;-67
2021/10/15 09:41:39;;;;;;;26.50;15.50;;;;;;;8.96;89.67;100775.00;5136530;27;20146;-67
2021/10/15 09:44:29;;;;;;;25.98;16.35;;;;;;;9.06;88.92;100776.31;5135984;27;20054;-67
2021/10/15 09:47:13;;;;;;;24.77;14.73;;;;;;;9.07;87.60;100779.81;5135728;27;20437;-67
2021/10/15 09:49:48;;;;;;;22.83;15.25;;;;;;;9.10;87.13;100777.06;5134059;27;20063;-66
2021/10/15 09:52:43;;;;;;;22.90;13.85;;;;;;;9.18;86.82;100773.09;5136048;27;20130;-67
2021/10/15 09:55:18;;;;;;;21.92;12.15;;;;;;;9.11;86.11;100774.31;5135866;27;20467;-67
2021/10/15 09:57:50;;;;;;;18.85;12.80;;;;;;;9.18;85.59;100758.94;5134374;27;20047;-67
2021/10/15 10:00:20;;;;;;;21.52;13.57;;;;;;;9.24;85.63;100760.44;5135874;27;20043;-67
2021/10/15 10:02:49;;;;;;;22.50;14.05;;;;;;;9.22;86.07;100754.31;5135485;27;20039;-68
2021/10/15 10:05:19;;;;;;;22.67;15.35;;;;;;;9.32;85.83;100755.63;5135639;27;20062;-67
2021/10/15 10:07:51;;;;;;;22.73;14.35;;;;;;;9.45;84.80;100751.44;5135417;27;20402;-72
2021/10/15 10:10:22;;;;;;;23.92;14.75;;;;;;;9.58;83.47;100741.94;5135309;27;20066;-67
2021/10/15 10:12:52;;;;;;;24.45;14.60;;;;;;;9.52;83.70;100739.56;5135081;27;20468;-67
2021/10/15 10:15:24;;;;;;;23.25;14.88;;;;;;;9.43;83.99;100745.31;5135716;27;20380;-67
2021/10/15 10:17:59;;;;;;;24.05;15.35;;;;;;;9.22;85.72;100733.03;5135208;27;20089;-67
2021/10/15 10:20:32;;;;;;;27.30;14.60;;;;;;;9.22;85.97;100735.69;5135076;27;20059;-66
2021/10/15 10:23:12;;;;;;;24.65;13.77;;;;;;;9.49;84.39;100739.72;5134904;27;20099;-67
2021/10/15 10:25:41;;;;;;;19.35;13.02;;;;;;;9.61;83.88;100733.78;5134667;27;20130;-67
2021/10/15 10:28:18;;;;;;;20.10;12.18;;;;;;;9.69;83.55;100728.94;5133601;27;20584;-67
2021/10/15 10:30:50;;;;;;;22.58;13.30;;;;;;;9.72;82.94;100728.78;5135009;27;20429;-67
2021/10/15 10:33:19;;;;;;;18.75;12.10;;;;;;;9.71;80.46;100708.41;5134991;27;20060;-67
2021/10/15 10:35:48;;;;;;;17.13;11.13;;;;;;;9.78;80.15;100710.78;5134327;27;20047;-67
2021/10/15 10:38:30;;;;;;;17.40;11.18;;;;;;;9.71;81.05;100713.75;5135062;27;20043;-67
2021/10/15 10:41:21;;;;;;;18.65;11.57;;;;;;;9.71;79.92;100713.75;5134571;27;20069;-68
2021/10/15 10:44:14;;;;;;;15.48;10.60;;;;;;;9.56;80.98;100711.00;5134777;27;20403;-67
2021/10/15 10:46:43;;;;;;;16.10;10.55;;;;;;;9.53;80.86;100704.00;5134903;27;20058;-67
2021/10/15 10:49:19;;;;;;;19.40;11.07;;;;;;;9.48;80.40;100700.72;5134416;27;20043;-67
2021/10/15 10:52:15;;;;;;;18.98;10.80;;;;;;;9.59;81.13;100690.38;5134760;27;20043;-68
2021/10/15 10:54:48;;;;;;;16.73;11.13;;;;;;;9.74;80.58;100692.28;5134991;27;20043;-67
2021/10/15 10:57:28;;;;;;;18.83;11.07;;;;;;;9.68;81.02;100689.94;5134845;27;20112;-67
2021/10/15 11:00:20;;;;;;;17.00;10.95;;;;;;;9.71;80.95;100687.13;5134424;27;20491;-67
2021/10/15 11:02:50;;;;;;;18.75;11.80;;;;;;;9.57;81.14;100676.28;5133359;27;20057;-67
2021/10/15 11:05:37;;;;;;;17.85;11.00;;;;;;;9.64;81.48;100680.34;5135051;27;20500;-67
2021/10/15 11:08:30;;;;;;;20.45;12.10;;;;;;;9.83;80.44;100668.78;5134722;27;20080;-67
2021/10/15 11:11:44;;;;;;;18.38;10.82;;;;;;;9.95;80.58;100668.19;5134075;27;20043;-67
2021/10/15 11:14:55;;;;;;;17.88;10.95;;;;;;;9.95;78.39;100663.72;5133943;27;20054;-66
2021/10/15 11:17:29;;;;;;;18.95;11.13;;;;;;;10.01;77.59;100662.53;5134442;27;20516;-66
2021/10/15 11:20:16;;;;;;;18.95;11.60;;;;;;;10.32;75.31;100657.34;5134435;27;20043;-66
2021/10/15 11:22:49;;;;;;;17.10;10.43;;;;;;;10.42;73.16;100667.53;5134621;27;20043;-67
2021/10/15 11:25:19;;;;;;;16.63;11.07;;;;;;;10.21;76.19;100657.03;5134349;27;20141;-66
2021/10/15 11:27:51;;;;;;;18.98;10.77;;;;;;;10.03;77.00;100650.84;5134212;27;20473;-67
2021/10/15 11:30:22;;;;;;;17.63;11.55;;;;;;;10.03;77.89;100655.31;5134133;27;20122;-68
2021/10/15 11:32:51;;;;;;;17.38;11.23;;;;;;;10.15;77.28;100638.69;5133749;27;20054;-67
2021/10/15 11:35:28;;;;;;;17.73;10.88;;;;;;;10.13;77.04;100647.69;5134135;27;20071;-66
2021/10/15 11:38:00;;;;;;;18.83;11.07;;;;;;;10.11;77.51;100642.44;5133661;27;20463;-67
2021/10/15 11:40:32;;;;;;;16.45;10.95;;;;;;;9.99;77.23;100638.63;5134123;27;20121;-67
2021/10/15 11:43:13;;;;;;;20.17;10.73;;;;;;;9.98;76.34;100631.56;5133721;27;20046;-68